sensor_id;sensor_type;location;lat;lon;timestamp;P1;durP1;ratioP1;P2;durP2;ratioP2
75311;SDS011;63906;55.686;37.532;2023-10-31T00:03:44;3.30;;;2.40;;
75311;SDS011;63906;55.686;37.532;2023-10-31T00:08:44;3.58;;;2.50;;
75311;SDS011;63906;55.686;37.532;2023-10-31T00:13:45;4.78;;;2.45;;
75311;SDS011;63906;55.686;37.532;2023-10-31T00:18:45;5.57;;;2.90;;
75311;SDS011;63906;55.686;37.532;2023-10-31T00:23:46;4.37;;;2.63;;
75311;SDS011;63906;55.686;37.532;2023-10-31T00:28:47;4.38;;;2.35;;
75311;SDS011;63906;55.686;37.532;2023-10-31T00:33:48;3.23;;;2.07;;
75311;SDS011;63906;55.686;37.532;2023-10-31T00:38:48;4.30;;;2.28;;
75311;SDS011;63906;55.686;37.532;2023-10-31T00:43:49;3.90;;;2.25;;
75311;SDS011;63906;55.686;37.532;2023-10-31T00:48:49;4.03;;;2.60;;
75311;SDS011;63906;55.686;37.532;2023-10-31T00:53:50;3.93;;;2.27;;
75311;SDS011;63906;55.686;37.532;2023-10-31T00:58:50;2.87;;;2.27;;
75311;SDS011;63906;55.686;37.532;2023-10-31T01:03:51;5.38;;;2.47;;
75311;SDS011;63906;55.686;37.532;2023-10-31T01:08:51;2.92;;;1.80;;
75311;SDS011;63906;55.686;37.532;2023-10-31T01:13:52;6.53;;;2.30;;
75311;SDS011;63906;55.686;37.532;2023-10-31T01:18:52;3.67;;;2.43;;
75311;SDS011;63906;55.686;37.532;2023-10-31T01:23:53;4.50;;;2.37;;
75311;SDS011;63906;55.686;37.532;2023-10-31T01:28:54;3.03;;;2.30;;
75311;SDS011;63906;55.686;37.532;2023-10-31T01:33:54;3.72;;;2.15;;
75311;SDS011;63906;55.686;37.532;2023-10-31T01:38:55;2.88;;;2.10;;
75311;SDS011;63906;55.686;37.532;2023-10-31T01:43:55;2.43;;;1.87;;
75311;SDS011;63906;55.686;37.532;2023-10-31T01:48:56;3.15;;;2.30;;
75311;SDS011;63906;55.686;37.532;2023-10-31T01:53:56;4.53;;;2.50;;
75311;SDS011;63906;55.686;37.532;2023-10-31T01:58:57;2.83;;;2.10;;
75311;SDS011;63906;55.686;37.532;2023-10-31T02:03:57;2.70;;;2.08;;
75311;SDS011;63906;55.686;37.532;2023-10-31T02:08:58;3.08;;;2.33;;
75311;SDS011;63906;55.686;37.532;2023-10-31T02:13:59;2.85;;;2.38;;
75311;SDS011;63906;55.686;37.532;2023-10-31T02:19:01;3.08;;;2.03;;
75311;SDS011;63906;55.686;37.532;2023-10-31T02:24:02;3.00;;;2.00;;
75311;SDS011;63906;55.686;37.532;2023-10-31T02:29:03;4.00;;;2.50;;
75311;SDS011;63906;55.686;37.532;2023-10-31T02:34:04;3.40;;;2.10;;
75311;SDS011;63906;55.686;37.532;2023-10-31T02:39:05;3.80;;;2.38;;
75311;SDS011;63906;55.686;37.532;2023-10-31T02:44:06;3.83;;;2.20;;
75311;SDS011;63906;55.686;37.532;2023-10-31T02:49:06;4.77;;;2.63;;
75311;SDS011;63906;55.686;37.532;2023-10-31T02:59:09;4.73;;;3.57;;
75311;SDS011;63906;55.686;37.532;2023-10-31T03:04:09;5.17;;;3.07;;
75311;SDS011;63906;55.686;37.532;2023-10-31T03:09:10;5.65;;;3.20;;
75311;SDS011;63906;55.686;37.532;2023-10-31T03:14:10;6.13;;;3.53;;
75311;SDS011;63906;55.686;37.532;2023-10-31T03:19:11;5.20;;;2.90;;
75311;SDS011;63906;55.686;37.532;2023-10-31T03:24:11;4.20;;;2.78;;
75311;SDS011;63906;55.686;37.532;2023-10-31T03:29:12;2.30;;;2.10;;
75311;SDS011;63906;55.686;37.532;2023-10-31T03:34:12;3.87;;;2.30;;
75311;SDS011;63906;55.686;37.532;2023-10-31T03:39:13;3.88;;;2.20;;
75311;SDS011;63906;55.686;37.532;2023-10-31T03:44:13;4.25;;;2.45;;
75311;SDS011;63906;55.686;37.532;2023-10-31T03:49:14;3.70;;;2.20;;
75311;SDS011;63906;55.686;37.532;2023-10-31T03:54:14;4.57;;;3.03;;
75311;SDS011;63906;55.686;37.532;2023-10-31T03:59:15;3.50;;;2.33;;
75311;SDS011;63906;55.686;37.532;2023-10-31T04:04:15;3.73;;;2.50;;
75311;SDS011;63906;55.686;37.532;2023-10-31T04:09:16;4.47;;;2.20;;
75311;SDS011;63906;55.686;37.532;2023-10-31T04:14:16;3.83;;;2.85;;
75311;SDS011;63906;55.686;37.532;2023-10-31T04:19:16;5.73;;;4.83;;
75311;SDS011;63906;55.686;37.532;2023-10-31T04:24:17;4.83;;;4.27;;
75311;SDS011;63906;55.686;37.532;2023-10-31T04:29:17;4.63;;;3.67;;
75311;SDS011;63906;55.686;37.532;2023-10-31T04:34:18;3.40;;;2.80;;
75311;SDS011;63906;55.686;37.532;2023-10-31T04:39:18;3.50;;;2.27;;
75311;SDS011;63906;55.686;37.532;2023-10-31T04:44:19;3.53;;;2.40;;
75311;SDS011;63906;55.686;37.532;2023-10-31T04:49:19;3.08;;;1.90;;
75311;SDS011;63906;55.686;37.532;2023-10-31T04:54:20;2.30;;;1.60;;
75311;SDS011;63906;55.686;37.532;2023-10-31T04:59:21;2.13;;;1.70;;
75311;SDS011;63906;55.686;37.532;2023-10-31T05:04:21;2.20;;;1.73;;
75311;SDS011;63906;55.686;37.532;2023-10-31T05:09:22;2.22;;;1.70;;
75311;SDS011;63906;55.686;37.532;2023-10-31T05:14:23;1.60;;;1.40;;
75311;SDS011;63906;55.686;37.532;2023-10-31T05:19:23;2.13;;;1.67;;
75311;SDS011;63906;55.686;37.532;2023-10-31T05:24:24;1.70;;;1.42;;
75311;SDS011;63906;55.686;37.532;2023-10-31T05:29:24;1.93;;;1.23;;
75311;SDS011;63906;55.686;37.532;2023-10-31T05:34:25;1.70;;;1.60;;
75311;SDS011;63906;55.686;37.532;2023-10-31T05:39:25;1.70;;;1.30;;
75311;SDS011;63906;55.686;37.532;2023-10-31T05:44:26;1.55;;;1.10;;
75311;SDS011;63906;55.686;37.532;2023-10-31T05:49:27;3.20;;;1.98;;
75311;SDS011;63906;55.686;37.532;2023-10-31T05:54:27;2.03;;;1.73;;
75311;SDS011;63906;55.686;37.532;2023-10-31T05:59:28;3.27;;;2.17;;
75311;SDS011;63906;55.686;37.532;2023-10-31T06:04:28;3.63;;;2.47;;
75311;SDS011;63906;55.686;37.532;2023-10-31T06:09:29;4.68;;;2.72;;
75311;SDS011;63906;55.686;37.532;2023-10-31T06:14:29;4.72;;;3.88;;
75311;SDS011;63906;55.686;37.532;2023-10-31T06:19:34;5.38;;;3.38;;
75311;SDS011;63906;55.686;37.532;2023-10-31T06:24:35;4.88;;;3.40;;
75311;SDS011;63906;55.686;37.532;2023-10-31T06:29:36;5.30;;;3.13;;
75311;SDS011;63906;55.686;37.532;2023-10-31T06:34:36;4.77;;;3.43;;
75311;SDS011;63906;55.686;37.532;2023-10-31T06:39:37;3.53;;;2.77;;
75311;SDS011;63906;55.686;37.532;2023-10-31T06:44:37;2.90;;;2.63;;
75311;SDS011;63906;55.686;37.532;2023-10-31T06:49:49;4.88;;;3.20;;
75311;SDS011;63906;55.686;37.532;2023-10-31T06:54:50;4.35;;;3.20;;
75311;SDS011;63906;55.686;37.532;2023-10-31T06:59:50;3.58;;;2.85;;
75311;SDS011;63906;55.686;37.532;2023-10-31T07:04:51;3.50;;;2.83;;
75311;SDS011;63906;55.686;37.532;2023-10-31T07:09:51;4.07;;;3.42;;
75311;SDS011;63906;55.686;37.532;2023-10-31T07:14:55;4.60;;;3.42;;
75311;SDS011;63906;55.686;37.532;2023-10-31T07:19:55;6.47;;;3.85;;
75311;SDS011;63906;55.686;37.532;2023-10-31T07:24:56;5.50;;;4.20;;
75311;SDS011;63906;55.686;37.532;2023-10-31T07:29:59;8.98;;;5.43;;
75311;SDS011;63906;55.686;37.532;2023-10-31T07:35:00;6.53;;;5.05;;
75311;SDS011;63906;55.686;37.532;2023-10-31T07:40:00;7.90;;;5.50;;
75311;SDS011;63906;55.686;37.532;2023-10-31T07:45:01;5.35;;;4.15;;
75311;SDS011;63906;55.686;37.532;2023-10-31T07:50:02;7.95;;;5.55;;
75311;SDS011;63906;55.686;37.532;2023-10-31T07:55:03;7.75;;;5.63;;
75311;SDS011;63906;55.686;37.532;2023-10-31T08:00:09;7.55;;;5.40;;
75311;SDS011;63906;55.686;37.532;2023-10-31T08:05:14;7.85;;;5.32;;
75311;SDS011;63906;55.686;37.532;2023-10-31T08:10:14;6.88;;;5.07;;
75311;SDS011;63906;55.686;37.532;2023-10-31T08:15:15;6.43;;;5.40;;
75311;SDS011;63906;55.686;37.532;2023-10-31T08:20:16;6.75;;;4.90;;
75311;SDS011;63906;55.686;37.532;2023-10-31T08:25:17;8.07;;;5.15;;
75311;SDS011;63906;55.686;37.532;2023-10-31T08:30:18;7.10;;;5.15;;
75311;SDS011;63906;55.686;37.532;2023-10-31T08:35:20;5.60;;;4.55;;
75311;SDS011;63906;55.686;37.532;2023-10-31T08:40:22;7.18;;;4.97;;
75311;SDS011;63906;55.686;37.532;2023-10-31T08:45:22;5.78;;;4.25;;
75311;SDS011;63906;55.686;37.532;2023-10-31T08:50:23;4.90;;;3.97;;
75311;SDS011;63906;55.686;37.532;2023-10-31T08:55:23;5.82;;;4.13;;
75311;SDS011;63906;55.686;37.532;2023-10-31T09:00:24;6.10;;;3.90;;
75311;SDS011;63906;55.686;37.532;2023-10-31T09:05:25;4.40;;;3.60;;
75311;SDS011;63906;55.686;37.532;2023-10-31T09:10:26;4.80;;;3.95;;
75311;SDS011;63906;55.686;37.532;2023-10-31T09:15:26;5.50;;;4.30;;
75311;SDS011;63906;55.686;37.532;2023-10-31T09:20:26;4.97;;;3.60;;
75311;SDS011;63906;55.686;37.532;2023-10-31T09:25:27;5.28;;;3.97;;
75311;SDS011;63906;55.686;37.532;2023-10-31T09:30:30;5.28;;;3.83;;
75311;SDS011;63906;55.686;37.532;2023-10-31T09:35:30;5.20;;;3.37;;
75311;SDS011;63906;55.686;37.532;2023-10-31T09:40:31;4.83;;;3.33;;
75311;SDS011;63906;55.686;37.532;2023-10-31T09:45:31;4.18;;;3.13;;
75311;SDS011;63906;55.686;37.532;2023-10-31T09:50:32;3.97;;;3.10;;
75311;SDS011;63906;55.686;37.532;2023-10-31T09:55:33;3.20;;;2.40;;
75311;SDS011;63906;55.686;37.532;2023-10-31T10:00:34;2.22;;;2.03;;
75311;SDS011;63906;55.686;37.532;2023-10-31T10:05:40;2.80;;;2.20;;
75311;SDS011;63906;55.686;37.532;2023-10-31T10:10:43;2.55;;;2.08;;
75311;SDS011;63906;55.686;37.532;2023-10-31T10:15:48;4.25;;;2.95;;
75311;SDS011;63906;55.686;37.532;2023-10-31T10:20:56;3.85;;;2.70;;
75311;SDS011;63906;55.686;37.532;2023-10-31T10:25:58;4.82;;;3.20;;
75311;SDS011;63906;55.686;37.532;2023-10-31T10:31:00;6.07;;;3.70;;
75311;SDS011;63906;55.686;37.532;2023-10-31T10:36:00;5.63;;;3.90;;
75311;SDS011;63906;55.686;37.532;2023-10-31T10:41:02;4.18;;;3.05;;
75311;SDS011;63906;55.686;37.532;2023-10-31T10:46:06;3.60;;;2.78;;
75311;SDS011;63906;55.686;37.532;2023-10-31T10:51:12;4.20;;;2.75;;
75311;SDS011;63906;55.686;37.532;2023-10-31T10:56:28;5.05;;;3.42;;
75311;SDS011;63906;55.686;37.532;2023-10-31T11:01:37;4.40;;;3.25;;
75311;SDS011;63906;55.686;37.532;2023-10-31T11:06:38;4.43;;;3.72;;
75311;SDS011;63906;55.686;37.532;2023-10-31T11:11:39;5.18;;;3.40;;
75311;SDS011;63906;55.686;37.532;2023-10-31T11:16:44;8.00;;;3.67;;
75311;SDS011;63906;55.686;37.532;2023-10-31T11:21:59;5.55;;;4.32;;
75311;SDS011;63906;55.686;37.532;2023-10-31T11:27:02;7.63;;;4.53;;
75311;SDS011;63906;55.686;37.532;2023-10-31T11:32:04;4.78;;;4.00;;
75311;SDS011;63906;55.686;37.532;2023-10-31T11:42:31;11.82;;;7.80;;
75311;SDS011;63906;55.686;37.532;2023-10-31T11:47:46;10.75;;;7.53;;
75311;SDS011;63906;55.686;37.532;2023-10-31T11:58:21;10.25;;;6.95;;
75311;SDS011;63906;55.686;37.532;2023-10-31T12:03:25;10.40;;;7.35;;
75311;SDS011;63906;55.686;37.532;2023-10-31T12:08:27;10.53;;;6.87;;
75311;SDS011;63906;55.686;37.532;2023-10-31T12:13:32;11.85;;;7.13;;
75311;SDS011;63906;55.686;37.532;2023-10-31T12:18:34;11.05;;;7.28;;
75311;SDS011;63906;55.686;37.532;2023-10-31T12:23:35;13.35;;;7.88;;
75311;SDS011;63906;55.686;37.532;2023-10-31T12:28:36;11.10;;;7.45;;
75311;SDS011;63906;55.686;37.532;2023-10-31T12:33:38;10.05;;;6.60;;
75311;SDS011;63906;55.686;37.532;2023-10-31T12:38:38;14.00;;;8.35;;
75311;SDS011;63906;55.686;37.532;2023-10-31T12:43:39;13.75;;;8.23;;
75311;SDS011;63906;55.686;37.532;2023-10-31T12:48:39;13.18;;;7.50;;
75311;SDS011;63906;55.686;37.532;2023-10-31T12:53:40;13.38;;;7.88;;
75311;SDS011;63906;55.686;37.532;2023-10-31T12:58:40;11.77;;;7.27;;
75311;SDS011;63906;55.686;37.532;2023-10-31T13:03:59;12.23;;;7.45;;
75311;SDS011;63906;55.686;37.532;2023-10-31T13:09:00;12.35;;;7.72;;
75311;SDS011;63906;55.686;37.532;2023-10-31T13:14:01;13.25;;;7.85;;
75311;SDS011;63906;55.686;37.532;2023-10-31T13:19:02;13.02;;;7.97;;
75311;SDS011;63906;55.686;37.532;2023-10-31T13:24:02;12.15;;;7.95;;
75311;SDS011;63906;55.686;37.532;2023-10-31T13:29:03;12.43;;;7.60;;
75311;SDS011;63906;55.686;37.532;2023-10-31T13:34:04;10.68;;;7.70;;
75311;SDS011;63906;55.686;37.532;2023-10-31T13:39:04;13.48;;;8.52;;
75311;SDS011;63906;55.686;37.532;2023-10-31T13:44:05;13.07;;;8.53;;
75311;SDS011;63906;55.686;37.532;2023-10-31T13:49:06;14.23;;;8.77;;
75311;SDS011;63906;55.686;37.532;2023-10-31T13:54:07;13.00;;;8.27;;
75311;SDS011;63906;55.686;37.532;2023-10-31T13:59:08;13.35;;;8.30;;
75311;SDS011;63906;55.686;37.532;2023-10-31T14:04:09;14.52;;;9.20;;
75311;SDS011;63906;55.686;37.532;2023-10-31T14:09:10;12.80;;;8.10;;
75311;SDS011;63906;55.686;37.532;2023-10-31T14:14:12;12.48;;;8.75;;
75311;SDS011;63906;55.686;37.532;2023-10-31T14:19:14;12.10;;;7.45;;
75311;SDS011;63906;55.686;37.532;2023-10-31T14:24:16;12.88;;;7.18;;
75311;SDS011;63906;55.686;37.532;2023-10-31T14:29:19;12.60;;;7.10;;
75311;SDS011;63906;55.686;37.532;2023-10-31T14:34:21;10.68;;;7.05;;
75311;SDS011;63906;55.686;37.532;2023-10-31T14:39:21;11.33;;;6.20;;
75311;SDS011;63906;55.686;37.532;2023-10-31T14:44:22;12.60;;;7.53;;
75311;SDS011;63906;55.686;37.532;2023-10-31T14:49:22;11.53;;;6.33;;
75311;SDS011;63906;55.686;37.532;2023-10-31T14:54:22;10.65;;;6.80;;
75311;SDS011;63906;55.686;37.532;2023-10-31T14:59:28;10.40;;;6.07;;
75311;SDS011;63906;55.686;37.532;2023-10-31T15:04:28;10.50;;;5.90;;
75311;SDS011;63906;55.686;37.532;2023-10-31T15:09:29;10.85;;;6.25;;
75311;SDS011;63906;55.686;37.532;2023-10-31T15:14:29;11.93;;;6.63;;
75311;SDS011;63906;55.686;37.532;2023-10-31T15:19:30;13.70;;;6.88;;
75311;SDS011;63906;55.686;37.532;2023-10-31T15:24:31;14.27;;;7.13;;
75311;SDS011;63906;55.686;37.532;2023-10-31T15:29:33;14.52;;;7.55;;
75311;SDS011;63906;55.686;37.532;2023-10-31T15:34:34;16.03;;;7.83;;
75311;SDS011;63906;55.686;37.532;2023-10-31T15:39:39;19.77;;;8.90;;
75311;SDS011;63906;55.686;37.532;2023-10-31T15:44:48;16.05;;;8.10;;
75311;SDS011;63906;55.686;37.532;2023-10-31T15:49:49;20.60;;;9.10;;
75311;SDS011;63906;55.686;37.532;2023-10-31T15:54:49;21.15;;;9.32;;
75311;SDS011;63906;55.686;37.532;2023-10-31T15:59:50;25.00;;;11.47;;
75311;SDS011;63906;55.686;37.532;2023-10-31T16:04:50;31.20;;;11.43;;
75311;SDS011;63906;55.686;37.532;2023-10-31T16:09:51;23.48;;;10.63;;
75311;SDS011;63906;55.686;37.532;2023-10-31T16:14:51;27.37;;;10.40;;
75311;SDS011;63906;55.686;37.532;2023-10-31T16:19:52;26.57;;;10.40;;
75311;SDS011;63906;55.686;37.532;2023-10-31T16:24:52;22.17;;;10.30;;
75311;SDS011;63906;55.686;37.532;2023-10-31T16:29:53;31.73;;;12.48;;
75311;SDS011;63906;55.686;37.532;2023-10-31T16:34:53;23.50;;;9.93;;
75311;SDS011;63906;55.686;37.532;2023-10-31T16:39:56;24.20;;;9.90;;
75311;SDS011;63906;55.686;37.532;2023-10-31T16:44:58;27.55;;;11.02;;
75311;SDS011;63906;55.686;37.532;2023-10-31T16:50:01;23.20;;;10.32;;
75311;SDS011;63906;55.686;37.532;2023-10-31T16:55:03;26.60;;;11.23;;
75311;SDS011;63906;55.686;37.532;2023-10-31T17:00:04;24.90;;;12.15;;
75311;SDS011;63906;55.686;37.532;2023-10-31T17:05:05;23.17;;;9.88;;
75311;SDS011;63906;55.686;37.532;2023-10-31T17:10:06;23.50;;;10.52;;
75311;SDS011;63906;55.686;37.532;2023-10-31T17:15:16;22.85;;;11.15;;
75311;SDS011;63906;55.686;37.532;2023-10-31T17:20:19;21.63;;;11.52;;
75311;SDS011;63906;55.686;37.532;2023-10-31T17:25:20;23.05;;;10.20;;
75311;SDS011;63906;55.686;37.532;2023-10-31T17:30:21;24.13;;;10.40;;
75311;SDS011;63906;55.686;37.532;2023-10-31T17:35:21;23.33;;;10.93;;
75311;SDS011;63906;55.686;37.532;2023-10-31T17:40:22;22.95;;;10.55;;
75311;SDS011;63906;55.686;37.532;2023-10-31T17:45:43;21.38;;;9.75;;
75311;SDS011;63906;55.686;37.532;2023-10-31T17:50:47;23.83;;;10.30;;
75311;SDS011;63906;55.686;37.532;2023-10-31T17:55:48;24.08;;;11.05;;
75311;SDS011;63906;55.686;37.532;2023-10-31T18:00:49;20.90;;;10.60;;
75311;SDS011;63906;55.686;37.532;2023-10-31T18:05:53;15.82;;;8.70;;
75311;SDS011;63906;55.686;37.532;2023-10-31T18:10:54;28.30;;;12.35;;
75311;SDS011;63906;55.686;37.532;2023-10-31T18:15:55;23.85;;;11.60;;
75311;SDS011;63906;55.686;37.532;2023-10-31T18:20:55;20.75;;;11.13;;
75311;SDS011;63906;55.686;37.532;2023-10-31T18:25:57;20.70;;;10.75;;
75311;SDS011;63906;55.686;37.532;2023-10-31T18:30:58;24.08;;;12.15;;
75311;SDS011;63906;55.686;37.532;2023-10-31T18:35:59;21.33;;;11.43;;
75311;SDS011;63906;55.686;37.532;2023-10-31T18:40:59;22.40;;;11.63;;
75311;SDS011;63906;55.686;37.532;2023-10-31T18:46:00;24.27;;;11.52;;
75311;SDS011;63906;55.686;37.532;2023-10-31T18:51:01;20.02;;;11.25;;
75311;SDS011;63906;55.686;37.532;2023-10-31T18:56:04;21.42;;;11.80;;
75311;SDS011;63906;55.686;37.532;2023-10-31T19:01:06;19.65;;;11.10;;
75311;SDS011;63906;55.686;37.532;2023-10-31T19:06:06;22.75;;;11.50;;
75311;SDS011;63906;55.686;37.532;2023-10-31T19:11:07;21.85;;;12.10;;
75311;SDS011;63906;55.686;37.532;2023-10-31T19:16:07;18.60;;;11.53;;
75311;SDS011;63906;55.686;37.532;2023-10-31T19:21:08;18.38;;;10.35;;
75311;SDS011;63906;55.686;37.532;2023-10-31T19:26:09;19.35;;;10.93;;
75311;SDS011;63906;55.686;37.532;2023-10-31T19:31:09;20.87;;;11.13;;
75311;SDS011;63906;55.686;37.532;2023-10-31T19:36:10;18.27;;;10.57;;
75311;SDS011;63906;55.686;37.532;2023-10-31T19:41:10;18.75;;;10.25;;
75311;SDS011;63906;55.686;37.532;2023-10-31T19:46:11;18.23;;;10.80;;
75311;SDS011;63906;55.686;37.532;2023-10-31T19:51:11;18.77;;;11.35;;
75311;SDS011;63906;55.686;37.532;2023-10-31T19:56:16;17.65;;;10.38;;
75311;SDS011;63906;55.686;37.532;2023-10-31T20:01:17;19.70;;;11.38;;
75311;SDS011;63906;55.686;37.532;2023-10-31T20:06:18;15.55;;;10.75;;
75311;SDS011;63906;55.686;37.532;2023-10-31T20:11:19;14.00;;;9.65;;
75311;SDS011;63906;55.686;37.532;2023-10-31T20:16:20;17.45;;;10.45;;
75311;SDS011;63906;55.686;37.532;2023-10-31T20:21:20;18.23;;;10.27;;
75311;SDS011;63906;55.686;37.532;2023-10-31T20:26:21;15.82;;;10.48;;
75311;SDS011;63906;55.686;37.532;2023-10-31T20:31:22;18.45;;;10.15;;
75311;SDS011;63906;55.686;37.532;2023-10-31T20:36:23;15.57;;;9.75;;
75311;SDS011;63906;55.686;37.532;2023-10-31T20:41:24;17.77;;;10.38;;
75311;SDS011;63906;55.686;37.532;2023-10-31T20:46:24;16.80;;;10.13;;
75311;SDS011;63906;55.686;37.532;2023-10-31T20:51:25;17.98;;;10.30;;
75311;SDS011;63906;55.686;37.532;2023-10-31T20:56:26;14.98;;;9.73;;
75311;SDS011;63906;55.686;37.532;2023-10-31T21:01:27;14.90;;;9.40;;
75311;SDS011;63906;55.686;37.532;2023-10-31T21:06:31;15.93;;;10.05;;
75311;SDS011;63906;55.686;37.532;2023-10-31T21:11:35;16.23;;;8.82;;
75311;SDS011;63906;55.686;37.532;2023-10-31T21:16:36;13.73;;;8.47;;
75311;SDS011;63906;55.686;37.532;2023-10-31T21:21:36;17.03;;;9.20;;
75311;SDS011;63906;55.686;37.532;2023-10-31T21:26:37;13.15;;;8.52;;
75311;SDS011;63906;55.686;37.532;2023-10-31T21:31:37;15.05;;;9.35;;
75311;SDS011;63906;55.686;37.532;2023-10-31T21:36:38;16.17;;;8.23;;
75311;SDS011;63906;55.686;37.532;2023-10-31T21:41:39;18.30;;;8.67;;
75311;SDS011;63906;55.686;37.532;2023-10-31T21:46:39;13.02;;;8.48;;
75311;SDS011;63906;55.686;37.532;2023-10-31T21:51:39;12.03;;;7.70;;
75311;SDS011;63906;55.686;37.532;2023-10-31T21:56:40;13.50;;;8.93;;
75311;SDS011;63906;55.686;37.532;2023-10-31T22:01:40;12.15;;;7.82;;
75311;SDS011;63906;55.686;37.532;2023-10-31T22:06:41;13.02;;;7.95;;
75311;SDS011;63906;55.686;37.532;2023-10-31T22:11:42;13.48;;;7.72;;
75311;SDS011;63906;55.686;37.532;2023-10-31T22:16:43;14.38;;;7.38;;
75311;SDS011;63906;55.686;37.532;2023-10-31T22:21:43;14.20;;;7.37;;
75311;SDS011;63906;55.686;37.532;2023-10-31T22:26:44;14.47;;;8.10;;
75311;SDS011;63906;55.686;37.532;2023-10-31T22:31:44;11.17;;;6.70;;
75311;SDS011;63906;55.686;37.532;2023-10-31T22:36:45;13.07;;;6.30;;
75311;SDS011;63906;55.686;37.532;2023-10-31T22:41:45;10.80;;;6.73;;
75311;SDS011;63906;55.686;37.532;2023-10-31T22:46:46;11.37;;;6.67;;
75311;SDS011;63906;55.686;37.532;2023-10-31T22:51:46;11.77;;;6.63;;
75311;SDS011;63906;55.686;37.532;2023-10-31T22:56:46;10.00;;;6.37;;
75311;SDS011;63906;55.686;37.532;2023-10-31T23:01:47;11.07;;;6.47;;
75311;SDS011;63906;55.686;37.532;2023-10-31T23:06:47;12.20;;;6.68;;
75311;SDS011;63906;55.686;37.532;2023-10-31T23:11:48;9.48;;;5.70;;
75311;SDS011;63906;55.686;37.532;2023-10-31T23:16:49;13.23;;;6.13;;
75311;SDS011;63906;55.686;37.532;2023-10-31T23:21:49;9.93;;;6.28;;
75311;SDS011;63906;55.686;37.532;2023-10-31T23:26:51;8.95;;;6.30;;
75311;SDS011;63906;55.686;37.532;2023-10-31T23:31:51;12.00;;;7.28;;
75311;SDS011;63906;55.686;37.532;2023-10-31T23:36:51;14.20;;;6.90;;
75311;SDS011;63906;55.686;37.532;2023-10-31T23:41:52;9.93;;;6.60;;
75311;SDS011;63906;55.686;37.532;2023-10-31T23:46:52;13.63;;;6.50;;
75311;SDS011;63906;55.686;37.532;2023-10-31T23:51:53;10.05;;;6.75;;
75311;SDS011;63906;55.686;37.532;2023-10-31T23:56:54;9.70;;;6.28;;
